createdAt,value
2018-10-16T00:01:35.494Z,9.61
2018-10-16T00:04:06.098Z,9.62
2018-10-16T00:06:34.692Z,9.57
2018-10-16T00:09:03.970Z,9.55
2018-10-16T00:11:32.570Z,9.48
2018-10-16T00:14:01.135Z,9.44
2018-10-16T00:16:30.413Z,9.42
2018-10-16T00:18:59.210Z,9.48
2018-10-16T00:21:27.855Z,9.51
2018-10-16T00:23:57.196Z,9.59
2018-10-16T00:26:25.915Z,9.60
2018-10-16T00:28:54.717Z,9.59
2018-10-16T00:31:23.486Z,9.54
2018-10-16T00:33:52.109Z,9.56
2018-10-16T00:36:20.646Z,9.54
2018-10-16T00:38:49.284Z,9.55
2018-10-16T00:41:17.867Z,9.49
2018-10-16T00:43:46.432Z,9.52
2018-10-16T00:46:16.995Z,9.53
2018-10-16T00:48:45.612Z,9.51
2018-10-16T00:51:14.130Z,9.48
2018-10-16T00:53:42.841Z,9.49
2018-10-16T00:56:11.426Z,9.45
2018-10-16T00:58:40.285Z,9.47
2018-10-16T01:01:08.795Z,9.41
2018-10-16T01:03:37.326Z,9.47
2018-10-16T01:06:06.086Z,9.55
2018-10-16T01:08:35.176Z,9.62
2018-10-16T01:11:05.401Z,9.68
2018-10-16T01:13:34.102Z,9.74
2018-10-16T01:16:02.670Z,9.78
2018-10-16T01:18:31.376Z,9.82
2018-10-16T01:20:59.974Z,9.83
2018-10-16T01:23:29.529Z,9.80
2018-10-16T01:25:58.164Z,9.75
2018-10-16T01:28:26.734Z,9.73
2018-10-16T01:30:55.350Z,9.71
2018-10-16T01:33:23.885Z,9.70
2018-10-16T01:35:52.410Z,9.70
2018-10-16T01:38:21.003Z,9.69
2018-10-16T01:40:49.637Z,9.59
2018-10-16T01:43:18.597Z,9.42
2018-10-16T01:45:47.154Z,9.26
2018-10-16T01:48:15.742Z,9.14
2018-10-16T01:50:44.345Z,9.04
2018-10-16T01:53:12.916Z,9.03
2018-10-16T01:55:41.685Z,9.05
2018-10-16T01:58:10.326Z,9.02
2018-10-16T02:00:38.924Z,9.00
2018-10-16T02:03:07.708Z,8.99
2018-10-16T02:05:36.589Z,8.95
2018-10-16T02:08:06.119Z,8.91
2018-10-16T02:10:34.713Z,9.02
2018-10-16T02:13:03.276Z,9.16
2018-10-16T02:15:31.874Z,9.22
2018-10-16T02:18:00.510Z,9.19
2018-10-16T02:20:29.180Z,9.12
2018-10-16T02:22:57.672Z,9.08
2018-10-16T02:25:27.253Z,9.09
2018-10-16T02:27:56.035Z,9.06
2018-10-16T02:30:24.566Z,8.98
2018-10-16T02:32:53.006Z,8.88
2018-10-16T02:35:21.741Z,8.70
2018-10-16T02:37:51.415Z,8.66
2018-10-16T02:40:20.010Z,8.64
2018-10-16T02:42:50.522Z,8.59
2018-10-16T02:45:19.206Z,8.56
2018-10-16T02:47:47.865Z,8.51
2018-10-16T02:50:16.330Z,8.51
2018-10-16T02:52:44.873Z,8.50
2018-10-16T02:55:13.557Z,8.42
2018-10-16T02:57:42.866Z,8.36
2018-10-16T03:00:11.526Z,8.34
2018-10-16T03:02:40.219Z,8.36
2018-10-16T03:05:08.872Z,8.41
2018-10-16T03:07:37.474Z,8.36
2018-10-16T03:10:06.130Z,8.28
2018-10-16T03:12:34.721Z,8.25
2018-10-16T03:15:03.354Z,8.15
2018-10-16T03:17:31.843Z,7.94
2018-10-16T03:20:00.358Z,7.77
2018-10-16T03:22:28.935Z,7.81
2018-10-16T03:24:58.448Z,7.83
2018-10-16T03:27:27.053Z,7.86
2018-10-16T03:29:55.658Z,7.93
2018-10-16T03:32:24.294Z,7.94
2018-10-16T03:34:52.910Z,7.93
2018-10-16T03:37:21.442Z,7.95
2018-10-16T03:39:50.066Z,7.94
2018-10-16T03:42:18.612Z,7.93
2018-10-16T03:44:47.972Z,7.89
2018-10-16T03:47:16.831Z,7.97
2018-10-16T03:49:45.298Z,8.03
2018-10-16T03:52:13.811Z,8.09
2018-10-16T03:54:42.347Z,8.09
2018-10-16T03:57:11.995Z,7.99
2018-10-16T03:59:40.574Z,7.86
2018-10-16T04:02:09.112Z,7.91
2018-10-16T04:04:37.885Z,7.95
2018-10-16T04:07:06.549Z,7.95
2018-10-16T04:09:35.096Z,7.93
2018-10-16T04:12:03.710Z,7.91
2018-10-16T04:14:33.084Z,7.86
2018-10-16T04:17:01.878Z,7.82
2018-10-16T04:19:30.479Z,7.78
2018-10-16T04:21:59.637Z,7.82
2018-10-16T04:24:28.397Z,7.84
2018-10-16T04:26:56.950Z,7.87
2018-10-16T04:29:25.637Z,7.87
2018-10-16T04:31:54.209Z,7.79
2018-10-16T04:34:22.777Z,7.67
2018-10-16T04:36:52.314Z,7.58
2018-10-16T04:39:21.838Z,7.57
2018-10-16T04:41:50.953Z,7.53
2018-10-16T04:44:19.535Z,7.51
2018-10-16T04:46:48.139Z,7.46
2018-10-16T04:49:16.708Z,7.42
2018-10-16T04:51:45.853Z,7.47
2018-10-16T04:54:14.399Z,7.54
2018-10-16T04:56:43.042Z,7.51
2018-10-16T04:59:11.976Z,7.43
2018-10-16T05:01:40.505Z,7.35
2018-10-16T05:04:09.310Z,7.38
2018-10-16T05:06:37.837Z,7.38
2018-10-16T05:09:07.831Z,7.30
2018-10-16T05:11:40.726Z,7.18
2018-10-16T05:14:09.379Z,7.07
2018-10-16T05:16:38.068Z,7.08
2018-10-16T05:19:06.815Z,7.03
2018-10-16T05:21:35.269Z,7.09
2018-10-16T05:24:03.857Z,7.08
2018-10-16T05:26:32.788Z,7.00
2018-10-16T05:29:01.377Z,6.92
2018-10-16T05:31:30.149Z,6.95
2018-10-16T05:34:00.255Z,6.88
2018-10-16T05:36:28.943Z,6.92
2018-10-16T05:38:57.489Z,6.92
2018-10-16T05:41:26.318Z,6.88
2018-10-16T05:43:54.861Z,6.95
2018-10-16T05:46:23.568Z,7.01
2018-10-16T05:48:52.083Z,7.05
2018-10-16T05:51:20.668Z,7.15
2018-10-16T05:53:49.228Z,7.25
2018-10-16T05:56:17.797Z,7.24
2018-10-16T05:58:46.383Z,7.23
2018-10-16T06:01:14.962Z,7.24
2018-10-16T06:03:43.613Z,7.23
2018-10-16T06:06:12.222Z,7.29
2018-10-16T06:08:40.890Z,7.44
2018-10-16T06:11:10.154Z,7.50
2018-10-16T06:13:38.842Z,7.54
2018-10-16T06:16:07.650Z,7.65
2018-10-16T06:18:36.210Z,7.78
2018-10-16T06:21:04.757Z,7.87
2018-10-16T06:23:33.225Z,7.90
2018-10-16T06:26:01.992Z,7.95
2018-10-16T06:28:30.595Z,8.03
2018-10-16T06:30:59.082Z,8.34
2018-10-16T06:33:30.137Z,8.44
2018-10-16T06:35:58.866Z,8.59
2018-10-16T06:38:27.554Z,8.69
2018-10-16T06:40:56.368Z,8.84
2018-10-16T06:43:24.802Z,9.00
2018-10-16T06:45:53.289Z,9.13
2018-10-16T06:48:22.058Z,9.24
2018-10-16T06:50:50.541Z,9.39
2018-10-16T06:53:19.149Z,9.58
2018-10-16T06:55:48.309Z,9.75
2018-10-16T06:58:17.121Z,9.88
2018-10-16T07:00:45.667Z,10.03
2018-10-16T07:03:16.974Z,10.18
2018-10-16T07:05:45.533Z,10.35
2018-10-16T07:08:14.314Z,10.50
2018-10-16T07:10:43.864Z,10.65
2018-10-16T07:13:12.545Z,10.79
2018-10-16T07:15:41.176Z,10.95
2018-10-16T07:18:09.793Z,11.12
2018-10-16T07:20:38.410Z,11.29
2018-10-16T07:23:06.981Z,11.45
2018-10-16T07:25:36.234Z,11.64
2018-10-16T07:28:04.823Z,11.79
2018-10-16T07:30:34.041Z,11.97
2018-10-16T07:33:03.538Z,12.11
2018-10-16T07:35:32.074Z,12.27
2018-10-16T07:38:00.728Z,12.44
2018-10-16T07:40:29.250Z,12.60
2018-10-16T07:42:57.881Z,12.80
2018-10-16T07:45:26.468Z,12.98
2018-10-16T07:47:55.061Z,13.15
2018-10-16T07:50:23.542Z,13.28
2018-10-16T07:52:52.081Z,13.44
2018-10-16T07:55:20.674Z,13.59
2018-10-16T07:57:49.325Z,13.73
2018-10-16T08:00:17.839Z,13.88
2018-10-16T08:02:46.590Z,14.05
2018-10-16T08:05:15.138Z,14.21
2018-10-16T08:07:44.040Z,14.36
2018-10-16T08:10:13.746Z,14.44
2018-10-16T08:12:42.733Z,14.52
2018-10-16T08:15:12.034Z,14.57
2018-10-16T08:17:41.457Z,14.64
2018-10-16T08:20:10.094Z,14.76
2018-10-16T08:22:39.200Z,14.84
2018-10-16T08:25:07.871Z,14.95
2018-10-16T08:27:36.611Z,15.04
2018-10-16T08:30:06.618Z,15.15
2018-10-16T08:32:35.084Z,15.27
2018-10-16T08:35:03.606Z,15.41
2018-10-16T08:39:49.052Z,15.50
2018-10-16T08:43:38.190Z,15.67
2018-10-16T08:46:17.763Z,15.79
2018-10-16T08:48:58.213Z,15.92
2018-10-16T08:51:33.939Z,16.01
2018-10-16T08:54:02.501Z,16.09
2018-10-16T08:56:31.385Z,16.20
2018-10-16T08:58:59.974Z,16.33
2018-10-16T09:01:28.762Z,16.42
2018-10-16T09:03:58.810Z,16.49
2018-10-16T09:06:27.359Z,16.63
2018-10-16T09:08:56.121Z,16.74
2018-10-16T09:11:24.747Z,16.85
2018-10-16T09:13:53.481Z,16.96
2018-10-16T09:16:22.632Z,17.04
2018-10-16T09:18:51.288Z,17.24
2018-10-16T09:21:20.081Z,17.31
2018-10-16T09:23:48.710Z,17.42
2018-10-16T09:26:17.286Z,17.46
2018-10-16T09:28:45.969Z,17.54
2018-10-16T09:31:14.582Z,17.64
2018-10-16T09:33:44.248Z,17.71
2018-10-16T09:36:12.778Z,17.84
2018-10-16T09:38:41.364Z,17.94
2018-10-16T09:41:09.972Z,18.12
2018-10-16T09:43:38.738Z,18.22
2018-10-16T09:46:07.510Z,18.35
2018-10-16T09:48:36.122Z,18.39
2018-10-16T09:51:04.852Z,18.45
2018-10-16T09:53:33.467Z,18.45
2018-10-16T09:56:01.921Z,18.52
2018-10-16T09:58:30.643Z,18.58
2018-10-16T10:01:04.484Z,18.70
2018-10-16T10:03:33.123Z,18.82
2018-10-16T10:06:02.203Z,18.97
2018-10-16T10:08:30.750Z,19.08
2018-10-16T10:10:59.614Z,19.23
2018-10-16T10:13:28.153Z,19.37
2018-10-16T10:15:56.987Z,19.46
2018-10-16T10:18:25.571Z,19.59
2018-10-16T10:20:54.164Z,19.74
2018-10-16T10:23:22.679Z,19.84
2018-10-16T10:25:51.275Z,19.95
2018-10-16T10:28:20.037Z,20.06
2018-10-16T10:30:48.495Z,20.22
2018-10-16T10:33:17.045Z,20.34
2018-10-16T10:35:45.635Z,20.39
2018-10-16T10:38:14.262Z,20.54
2018-10-16T10:40:43.019Z,20.77
2018-10-16T10:43:11.587Z,20.91
2018-10-16T10:45:40.327Z,21.07
2018-10-16T10:48:08.886Z,21.27
2018-10-16T10:50:38.436Z,21.40
2018-10-16T10:53:06.943Z,21.59
2018-10-16T10:55:35.426Z,21.64
2018-10-16T10:58:03.901Z,21.64
2018-10-16T11:00:33.046Z,21.73
2018-10-16T11:03:01.730Z,21.83
2018-10-16T11:05:30.769Z,22.04
2018-10-16T11:07:59.371Z,22.19
2018-10-16T11:10:29.114Z,22.22
2018-10-16T11:12:57.754Z,22.44
2018-10-16T11:15:26.401Z,22.94
2018-10-16T11:17:55.215Z,23.49
2018-10-16T11:20:23.989Z,23.93
2018-10-16T11:22:52.594Z,24.40
2018-10-16T11:25:21.184Z,24.76
2018-10-16T11:27:49.848Z,25.01
2018-10-16T11:30:18.813Z,25.51
2018-10-16T11:32:47.458Z,25.91
2018-10-16T11:35:16.053Z,26.25
2018-10-16T11:37:44.731Z,26.65
2018-10-16T11:40:13.706Z,27.18
2018-10-16T11:42:42.844Z,27.32
2018-10-16T11:45:11.768Z,27.58
2018-10-16T11:47:40.425Z,27.93
2018-10-16T11:50:10.943Z,28.06
2018-10-16T11:52:39.838Z,27.53
2018-10-16T11:55:09.163Z,26.95
2018-10-16T11:57:39.901Z,26.50
2018-10-16T12:00:12.781Z,26.55
2018-10-16T12:02:41.586Z,26.61
2018-10-16T12:05:10.299Z,26.91
2018-10-16T12:07:39.008Z,27.38
2018-10-16T12:10:07.802Z,28.09
2018-10-16T12:12:36.866Z,28.49
2018-10-16T12:15:06.166Z,28.74
2018-10-16T12:19:43.782Z,28.27
2018-10-16T12:22:12.562Z,28.75
2018-10-16T12:24:41.237Z,29.16
2018-10-16T12:27:12.140Z,29.58
2018-10-16T12:29:40.683Z,30.03
2018-10-16T12:32:09.306Z,30.13
2018-10-16T12:34:38.187Z,30.30
2018-10-16T12:37:06.917Z,30.67
2018-10-16T12:39:35.628Z,30.86
2018-10-16T12:42:04.653Z,31.06
2018-10-16T12:44:33.253Z,31.10
2018-10-16T12:47:02.030Z,31.36
2018-10-16T12:49:31.367Z,30.96
2018-10-16T12:52:00.398Z,31.09
2018-10-16T12:54:29.270Z,30.97
2018-10-16T12:56:58.027Z,30.92
2018-10-16T12:59:26.634Z,30.80
2018-10-16T13:01:55.326Z,30.71
2018-10-16T13:04:23.817Z,30.71
2018-10-16T13:06:52.283Z,30.89
2018-10-16T13:09:20.856Z,31.12
2018-10-16T13:11:49.366Z,31.06
2018-10-16T13:14:17.955Z,31.09
2018-10-16T13:16:46.762Z,31.31
2018-10-16T13:19:15.508Z,31.44
2018-10-16T13:21:44.420Z,31.28
2018-10-16T13:24:13.042Z,31.46
2018-10-16T13:26:41.733Z,31.57
2018-10-16T13:29:10.263Z,31.55
2018-10-16T13:31:38.867Z,31.58
2018-10-16T13:34:07.627Z,31.81
2018-10-16T13:36:37.207Z,31.87
2018-10-16T13:39:08.549Z,32.07
2018-10-16T13:41:37.105Z,32.32
2018-10-16T13:44:05.792Z,32.51
2018-10-16T13:46:34.298Z,31.19
2018-10-16T13:49:03.127Z,30.52
2018-10-16T13:51:31.641Z,30.36
2018-10-16T13:54:00.597Z,30.54
2018-10-16T13:56:29.185Z,30.71
2018-10-16T13:58:57.802Z,30.88
2018-10-16T14:01:32.192Z,30.95
2018-10-16T14:04:02.541Z,31.24
2018-10-16T14:06:31.502Z,31.48
2018-10-16T14:09:00.038Z,31.60
2018-10-16T14:11:28.845Z,31.48
2018-10-16T14:13:57.445Z,31.14
2018-10-16T14:16:26.228Z,30.80
2018-10-16T14:18:58.430Z,30.74
2018-10-16T14:21:27.260Z,30.51
2018-10-16T14:23:56.160Z,30.59
2018-10-16T14:26:24.678Z,30.68
2018-10-16T14:28:53.306Z,30.62
2018-10-16T14:31:21.945Z,30.49
2018-10-16T14:33:51.698Z,30.10
2018-10-16T14:36:20.139Z,29.68
2018-10-16T14:38:48.783Z,29.06
2018-10-16T14:41:17.372Z,28.94
2018-10-16T14:43:46.220Z,29.04
2018-10-16T14:46:15.319Z,29.65
2018-10-16T14:48:43.848Z,29.83
2018-10-16T14:51:12.621Z,29.63
2018-10-16T14:53:41.179Z,29.38
2018-10-16T14:56:09.841Z,28.97
2018-10-16T14:58:38.774Z,28.77
2018-10-16T15:01:07.542Z,28.55
2018-10-16T15:03:36.177Z,27.86
2018-10-16T15:06:04.807Z,27.31
2018-10-16T15:08:33.453Z,26.95
2018-10-16T15:11:01.965Z,26.61
2018-10-16T15:13:30.462Z,26.31
2018-10-16T15:15:59.013Z,26.04
2018-10-16T15:18:27.547Z,25.73
2018-10-16T15:20:56.086Z,25.37
2018-10-16T15:23:25.024Z,25.07
2018-10-16T15:25:53.738Z,24.77
2018-10-16T15:28:22.557Z,24.32
2018-10-16T15:30:51.088Z,23.91
2018-10-16T15:33:19.996Z,23.54
2018-10-16T15:35:48.602Z,23.24
2018-10-16T15:38:17.085Z,22.93
2018-10-16T15:40:45.910Z,22.69
2018-10-16T15:43:14.501Z,22.41
2018-10-16T15:45:43.093Z,22.14
2018-10-16T15:48:12.900Z,21.88
2018-10-16T15:50:41.555Z,21.70
2018-10-16T15:53:10.135Z,21.46
2018-10-16T15:55:38.642Z,21.29
2018-10-16T15:58:07.546Z,21.07
2018-10-16T16:00:36.268Z,20.85
2018-10-16T16:03:05.113Z,20.68
2018-10-16T16:05:33.749Z,20.47
2018-10-16T16:08:02.464Z,20.28
2018-10-16T16:10:31.585Z,20.13
2018-10-16T16:13:01.657Z,19.97
2018-10-16T16:15:30.646Z,19.81
2018-10-16T16:17:59.352Z,19.63
2018-10-16T16:20:27.949Z,19.44
2018-10-16T16:22:56.519Z,19.21
2018-10-16T16:25:25.122Z,19.07
2018-10-16T16:27:53.827Z,18.95
2018-10-16T16:30:22.350Z,18.83
2018-10-16T16:32:51.062Z,18.70
2018-10-16T16:35:20.606Z,18.57
2018-10-16T16:37:49.236Z,18.44
2018-10-16T16:40:18.068Z,18.33
2018-10-16T16:42:46.652Z,18.22
2018-10-16T16:45:15.314Z,18.24
2018-10-16T16:47:43.881Z,18.24
2018-10-16T16:50:13.012Z,18.15
2018-10-16T16:52:42.251Z,18.04
2018-10-16T16:55:12.543Z,17.94
2018-10-16T16:57:42.438Z,17.78
2018-10-16T17:00:12.227Z,17.59
2018-10-16T17:02:41.653Z,17.30
2018-10-16T17:05:11.013Z,17.14
2018-10-16T17:07:39.701Z,17.02
2018-10-16T17:10:09.058Z,16.98
2018-10-16T17:12:38.234Z,16.87
2018-10-16T17:15:08.697Z,16.76
2018-10-16T17:17:37.237Z,16.64
2018-10-16T17:20:06.640Z,16.59
2018-10-16T17:22:35.344Z,16.52
2018-10-16T17:25:04.236Z,16.43
2018-10-16T17:27:32.681Z,16.31
2018-10-16T17:30:02.340Z,16.14
2018-10-16T17:32:30.887Z,16.01
2018-10-16T17:35:01.166Z,15.92
2018-10-16T17:37:30.083Z,15.80
2018-10-16T17:39:58.861Z,15.72
2018-10-16T17:42:28.069Z,15.67
2018-10-16T17:44:56.720Z,15.64
2018-10-16T17:47:25.296Z,15.69
2018-10-16T17:49:54.011Z,15.78
2018-10-16T17:52:23.729Z,15.83
2018-10-16T17:54:52.279Z,15.88
2018-10-16T17:57:20.897Z,15.89
2018-10-16T17:59:49.502Z,15.89
2018-10-16T18:02:18.029Z,15.87
2018-10-16T18:04:46.737Z,15.84
2018-10-16T18:07:15.542Z,15.78
2018-10-16T18:09:44.391Z,15.73
2018-10-16T18:12:13.013Z,15.69
2018-10-16T18:14:41.737Z,15.69
2018-10-16T18:17:12.556Z,15.67
2018-10-16T18:19:41.121Z,15.65
2018-10-16T18:22:09.964Z,15.61
2018-10-16T18:24:38.509Z,15.52
2018-10-16T18:27:07.433Z,15.47
2018-10-16T18:29:36.171Z,15.45
2018-10-16T18:32:04.802Z,15.46
2018-10-16T18:34:33.341Z,15.46
2018-10-16T18:37:02.916Z,15.29
2018-10-16T18:39:31.763Z,15.20
2018-10-16T18:42:00.431Z,15.12
2018-10-16T18:44:29.114Z,15.09
2018-10-16T18:46:57.760Z,14.95
2018-10-16T18:49:26.350Z,14.91
2018-10-16T18:51:54.893Z,14.86
2018-10-16T18:54:24.014Z,14.82
2018-10-16T18:56:53.114Z,14.83
2018-10-16T18:59:21.880Z,14.83
2018-10-16T19:01:50.603Z,14.82
2018-10-16T19:04:19.350Z,14.81
2018-10-16T19:06:47.859Z,14.78
2018-10-16T19:09:16.721Z,14.77
2018-10-16T19:11:45.511Z,14.73
2018-10-16T19:14:13.990Z,14.69
2018-10-16T19:16:42.902Z,14.69
2018-10-16T19:19:11.713Z,14.63
2018-10-16T19:21:40.537Z,14.60
2018-10-16T19:24:10.321Z,14.58
2018-10-16T19:26:39.066Z,14.48
2018-10-16T19:29:07.841Z,14.29
2018-10-16T19:31:36.483Z,14.22
2018-10-16T19:34:05.294Z,14.12
2018-10-16T19:36:35.479Z,14.11
2018-10-16T19:39:05.390Z,14.00
2018-10-16T19:41:34.081Z,14.03
2018-10-16T19:44:02.638Z,13.98
2018-10-16T19:46:31.528Z,13.98
2018-10-16T19:49:00.308Z,13.93
2018-10-16T19:51:30.724Z,13.90
2018-10-16T19:53:59.444Z,13.84
2018-10-16T19:56:28.046Z,13.75
2018-10-16T19:58:56.967Z,13.73
2018-10-16T20:01:25.751Z,13.69
2018-10-16T20:03:54.513Z,13.70
2018-10-16T20:06:24.115Z,13.67
2018-10-16T20:08:52.892Z,13.68
2018-10-16T20:11:21.638Z,13.56
2018-10-16T20:13:50.232Z,13.38
2018-10-16T20:16:18.957Z,13.14
2018-10-16T20:18:47.553Z,13.02
2018-10-16T20:21:16.519Z,12.99
2018-10-16T20:23:45.282Z,12.89
2018-10-16T20:26:14.268Z,12.78
2018-10-16T20:28:43.078Z,12.71
2018-10-16T20:31:12.738Z,12.59
2018-10-16T20:33:41.477Z,12.51
2018-10-16T20:36:10.059Z,12.34
2018-10-16T20:38:38.844Z,12.12
2018-10-16T20:41:07.602Z,12.00
2018-10-16T20:43:36.806Z,11.85
2018-10-16T20:46:06.097Z,11.79
2018-10-16T20:48:34.992Z,11.68
2018-10-16T20:51:03.665Z,11.59
2018-10-16T20:53:33.504Z,11.59
2018-10-16T20:56:01.990Z,11.60
2018-10-16T20:58:31.341Z,11.49
2018-10-16T21:01:00.378Z,11.43
2018-10-16T21:03:29.109Z,11.46
2018-10-16T21:05:57.820Z,11.46
2018-10-16T21:08:27.471Z,11.37
2018-10-16T21:10:56.157Z,11.23
2018-10-16T21:13:25.748Z,11.06
2018-10-16T21:15:54.328Z,10.95
2018-10-16T21:18:24.089Z,10.78
2018-10-16T21:20:52.864Z,10.64
2018-10-16T21:23:21.538Z,10.50
2018-10-16T21:25:50.102Z,10.47
2018-10-16T21:28:18.790Z,10.53
2018-10-16T21:30:47.330Z,10.53
2018-10-16T21:33:15.922Z,10.52
2018-10-16T21:35:44.446Z,10.53
2018-10-16T21:38:13.059Z,10.49
2018-10-16T21:40:41.678Z,10.42
2018-10-16T21:43:10.247Z,10.42
2018-10-16T21:45:38.705Z,10.40
2018-10-16T21:48:07.318Z,10.39
2018-10-16T21:50:36.000Z,10.42
2018-10-16T21:53:04.926Z,10.41
2018-10-16T21:55:33.581Z,10.33
2018-10-16T21:58:02.340Z,10.27
2018-10-16T22:00:38.113Z,10.17
2018-10-16T22:03:07.055Z,10.11
2018-10-16T22:05:35.898Z,9.98
2018-10-16T22:08:05.507Z,9.89
2018-10-16T22:10:34.441Z,9.92
2018-10-16T22:13:07.252Z,9.93
2018-10-16T22:15:35.855Z,9.98
2018-10-16T22:18:04.473Z,9.97
2018-10-16T22:20:33.011Z,9.90
2018-10-16T22:23:01.761Z,9.83
2018-10-16T22:25:30.454Z,9.85
2018-10-16T22:28:04.321Z,9.81
2018-10-16T22:30:33.807Z,9.84
2018-10-16T22:33:02.409Z,9.76
2018-10-16T22:35:31.033Z,9.83
2018-10-16T22:37:59.551Z,9.85
2018-10-16T22:40:28.030Z,9.84
2018-10-16T22:42:56.702Z,9.74
2018-10-16T22:45:25.437Z,9.76
2018-10-16T22:47:53.912Z,9.81
2018-10-16T22:50:22.378Z,9.80
2018-10-16T22:52:51.063Z,9.80
2018-10-16T22:55:19.630Z,9.77
2018-10-16T22:57:48.313Z,9.78
2018-10-16T23:00:18.653Z,9.76
2018-10-16T23:02:47.961Z,9.72
2018-10-16T23:05:16.585Z,9.61
2018-10-16T23:07:46.261Z,9.63
2018-10-16T23:10:15.534Z,9.64
2018-10-16T23:12:44.822Z,9.79
2018-10-16T23:15:13.408Z,9.80
2018-10-16T23:17:41.934Z,9.77
2018-10-16T23:20:11.710Z,9.76
2018-10-16T23:22:40.793Z,9.67
2018-10-16T23:25:09.425Z,9.65
2018-10-16T23:27:37.903Z,9.60
2018-10-16T23:30:06.767Z,9.55
2018-10-16T23:32:35.256Z,9.45
2018-10-16T23:35:03.840Z,9.36
2018-10-16T23:37:32.505Z,9.30
2018-10-16T23:40:01.067Z,9.30
2018-10-16T23:42:29.753Z,9.28
2018-10-16T23:44:58.978Z,9.31
2018-10-16T23:47:27.558Z,9.28
2018-10-16T23:49:56.298Z,9.25
2018-10-16T23:52:24.832Z,9.24
2018-10-16T23:54:53.956Z,9.18
2018-10-16T23:57:25.289Z,9.12
2018-10-16T23:59:53.871Z,9.03
